Aviation Digital Data Service (ADDS)

Output produced by METARs form (0851 UTC 03 March 2015)
found at http://aviationweather.gov/adds/metars/
 
KDEN 030539Z 0306/0412 24008KT 5SM HZ FEW060 BKN250 
     FM030800 24012KT P6SM BKN200 
     FM031100 01015G22KT P6SM SCT020 SCT120 BKN200 
     FM031400 04013KT P6SM VCSH SCT008 OVC020 
     TEMPO 0319/0322 3SM -SN OVC008 
     FM032200 07014KT 4SM -SN BR SCT008 OVC020 
     FM040100 03012KT 1SM -SN BR SCT005 BKN008 OVC020 
     FM040600 06008KT 3/4SM -SN BR BKN005 OVC008